Flag for French Polynesia

Past Weather in Papeete, Tahiti, French Polynesia — January 2021

Currently: 81 °F. Passing clouds. (Weather station: Tahiti-Faaa, French Polynesia). See more current weather

January 2021 Weather in Papeete — Graph

°F

High & Low Weather Summary for January 2021

 TemperatureHumidityPressure
High90 °F (Jan 1, 3:00 pm)94% (Jan 5, 12:00 am)30.04 "Hg (Jan 5, 12:00 am)
Low73 °F (Jan 3, 4:30 am)46% (Jan 3, 12:30 pm)29.80 "Hg (Jan 27, 3:30 pm)
Average81 °F70%29.92 "Hg
* Reported Jan 1 12:00 am — Jan 31 11:30 pm, Papeete. Weather by CustomWeather, © 2021

Note: Actual official high and low records may vary slightly from our data, if they occured in-between our weather recording intervals... More about our weather records

Papeete Weather History for January 1, 2021

Scroll right to see more
 ConditionsComfort  
Time TempWeatherWind HumidityBarometerVisibility
12:00 am
Fri, Jan 1
79 °FWarm.3 mph65%29.95 "HgN/A
12:30 am79 °FPassing clouds.3 mph65%29.95 "HgN/A
1:00 am79 °FPassing clouds.3 mph65%29.92 "HgN/A
1:30 am79 °FPassing clouds.2 mph65%29.92 "HgN/A
2:00 am79 °FPassing clouds.3 mph70%29.92 "HgN/A
2:30 am79 °FPassing clouds.9 mph65%29.89 "HgN/A
3:00 am77 °FPassing clouds.6 mph69%29.89 "HgN/A
3:30 am77 °FPassing clouds.3 mph69%29.89 "HgN/A
4:00 am75 °FPassing clouds.3 mph74%29.89 "HgN/A
4:30 am77 °FPassing clouds.3 mph74%29.89 "HgN/A
5:00 am77 °FPassing clouds.3 mph74%29.92 "HgN/A
5:30 am77 °FScattered clouds.5 mph74%29.92 "HgN/A
6:00 am77 °FScattered clouds.5 mph74%29.92 "HgN/A
6:30 am81 °FPartly sunny.2 mph70%29.92 "HgN/A
7:00 am81 °FPartly sunny.2 mph70%29.92 "HgN/A
7:30 am84 °FScattered clouds.2 mph66%29.95 "HgN/A
8:00 am84 °FScattered clouds.2 mph66%29.95 "HgN/A
8:36 am86 °FScattered clouds.5 mph59%29.95 "HgN/A
9:00 am86 °FScattered clouds.5 mph59%29.95 "HgN/A
9:30 am86 °FScattered clouds.7 mph62%29.95 "HgN/A
10:00 am86 °FPassing clouds.12 mph59%29.95 "HgN/A
10:30 am86 °FPassing clouds.12 mph62%29.92 "HgN/A
11:00 am86 °FPassing clouds.9 mph62%29.92 "HgN/A
11:30 am86 °FPassing clouds.12 mph59%29.92 "HgN/A
12:00 pm86 °FScattered clouds.8 mph59%29.92 "HgN/A
12:30 pm86 °FScattered clouds.7 mph62%29.92 "HgN/A
1:00 pm86 °FScattered showers. Partly sunny.6 mph59%29.92 "HgN/A
1:30 pm88 °FScattered showers. Scattered clouds.7 mph49%29.92 "HgN/A
2:00 pm88 °FPassing clouds.8 mph52%29.89 "HgN/A
2:30 pm88 °FPassing clouds.5 mph55%29.89 "HgN/A
3:00 pm90 °FPassing clouds.7 mph59%29.86 "HgN/A
3:30 pm88 °FPassing clouds.13 mph52%29.86 "HgN/A
4:00 pm88 °FPassing clouds.10 mph55%29.86 "HgN/A
4:30 pm88 °FPassing clouds.8 mph55%29.89 "HgN/A
5:00 pm88 °FPassing clouds.9 mph55%29.89 "HgN/A
5:30 pm88 °FPassing clouds.5 mph55%29.89 "HgN/A
6:00 pm86 °FPassing clouds.8 mph55%29.89 "HgN/A
6:30 pm86 °FPassing clouds.3 mph55%29.92 "HgN/A
7:00 pm84 °FPassing clouds.5 mph58%29.95 "HgN/A
7:30 pm84 °FPassing clouds.6 mph55%29.95 "HgN/A
8:00 pm82 °FPassing clouds.5 mph62%29.95 "HgN/A
8:30 pm82 °FPassing clouds.3 mph66%29.95 "HgN/A
9:00 pm81 °FPassing clouds.3 mph70%29.98 "HgN/A
9:30 pm81 °FPassing clouds.2 mph66%29.98 "HgN/A
10:00 pm79 °FPassing clouds.5 mph74%29.98 "HgN/A
10:30 pm79 °FClear.3 mph74%29.98 "Hg10 mi
11:00 pm79 °FPassing clouds.6 mph74%29.98 "HgN/A
11:30 pm79 °FClear.2 mph79%29.95 "Hg10 mi
Weather by CustomWeather, © 2021

See weather overview